< < Back
Terminal Aerodrome Forecast


Current Version              Previous Versions:   1  2  3  4  5  6  7  8  9  

Terminal Aerodrome Forecast

353
FTAK31 PAJN 302300
TAFAGS
TAF
PAGS 302324Z 3100/3124 32011G18KT P6SM SCT060 OVC150
     FM310300 34006KT P6SM BKN150
     FM310600 VRB03KT P6SM -SHRA BKN050 BKN100
     FM310900 VRB04KT P6SM -SHRA OVC050
     FM311500 12005KT 4SM -SHRA BR BKN020 OVC040
     FM312100 14006KT 6SM -SHRA BR BKN025 OVC050
      AMD LTD TO CLD VIS AND WIND=



Latest METAR

235
SAUS70 KWBC 310156
MTRAGS
METAR KAGS 310153Z 00000KT 10SM CLR 09/07 A3007 RMK AO2 SLP182
T00940072


USA.gov is the U.S. government's official web portal to all federal, state and local government web resources and services.